Time;durP1;ratioP1;P1;durP2;ratioP2;P2;SDS_P1;SDS_P2;PMS_P1;PMS_P2;Temp;Humidity;BMP_temperature;BMP_pressure;BME280_temperature;BME280_humidity;BME280_pressure;Samples;Min_cycle;Max_cycle;Signal;HPM_P1;HPM_P2
2024/01/23 00:01:15;;;;;;;19.58;2.65;;;7.10;99.90;;;;;;5026738;28;20053;-71
2024/01/23 00:03:42;;;;;;;18.88;2.92;;;7.20;99.90;;;;;;5021947;28;20277;-70
2024/01/23 00:06:09;;;;;;;22.27;4.43;;;7.10;99.90;;;;;;5023343;28;20080;-68
2024/01/23 00:08:36;;;;;;;18.17;3.42;;;7.10;99.90;;;;;;5025567;28;20041;-69
2024/01/23 00:11:03;;;;;;;12.20;3.85;;;7.10;99.90;;;;;;5022594;28;20085;-69
2024/01/23 00:13:30;;;;;;;14.93;3.05;;;7.10;99.90;;;;;;5027772;28;20045;-69
2024/01/23 00:15:57;;;;;;;26.95;3.22;;;7.10;99.90;;;;;;5022979;28;20107;-70
2024/01/23 00:18:24;;;;;;;19.45;4.30;;;7.00;99.90;;;;;;5027019;28;20473;-69
2024/01/23 00:20:51;;;;;;;12.25;3.05;;;7.00;99.90;;;;;;5018664;28;20128;-69
2024/01/23 00:23:17;;;;;;;19.45;3.80;;;7.00;99.90;;;;;;5023983;28;20046;-69
2024/01/23 00:25:44;;;;;;;19.33;3.35;;;7.00;99.90;;;;;;5022470;28;20049;-71
2024/01/23 00:28:11;;;;;;;23.02;3.70;;;7.00;99.90;;;;;;5022354;28;20140;-69
2024/01/23 00:30:38;;;;;;;16.73;3.13;;;7.00;99.90;;;;;;5011400;28;20485;-69
2024/01/23 00:33:05;;;;;;;18.45;3.00;;;7.00;99.90;;;;;;5020511;28;20049;-69
2024/01/23 00:35:32;;;;;;;25.77;3.70;;;7.00;99.90;;;;;;5014883;28;20140;-69
2024/01/23 00:37:59;;;;;;;24.35;4.20;;;7.00;99.90;;;;;;5018825;28;20050;-70
2024/01/23 00:40:25;;;;;;;23.27;3.80;;;6.90;99.90;;;;;;5021637;28;20108;-70
2024/01/23 00:42:52;;;;;;;16.17;2.63;;;6.90;99.90;;;;;;5023780;28;20473;-69
2024/01/23 00:45:19;;;;;;;25.88;3.75;;;6.90;99.90;;;;;;5023490;28;20045;-69
2024/01/23 00:47:46;;;;;;;20.70;3.20;;;6.90;99.90;;;;;;5025325;28;20133;-70
2024/01/23 00:50:13;;;;;;;45.05;5.93;;;6.90;99.90;;;;;;5029723;28;20072;-69
2024/01/23 00:52:40;;;;;;;19.88;3.70;;;6.90;99.90;;;;;;5048036;28;20053;-70
2024/01/23 00:55:07;;;;;;;20.30;3.13;;;6.80;99.90;;;;;;5022358;28;20057;-69
2024/01/23 00:57:34;;;;;;;17.75;3.05;;;6.80;99.90;;;;;;5023823;28;20053;-69
2024/01/23 01:00:05;;;;;;;22.42;3.25;;;6.80;99.90;;;;;;5031739;28;20124;-69
2024/01/23 01:02:32;;;;;;;10.88;2.10;;;6.80;99.90;;;;;;5020670;28;20045;-69
2024/01/23 01:04:59;;;;;;;18.42;3.55;;;6.70;99.90;;;;;;5026843;28;20472;-69
2024/01/23 01:07:26;;;;;;;14.50;3.40;;;6.80;99.90;;;;;;5022874;28;20059;-69
2024/01/23 01:09:53;;;;;;;15.48;2.70;;;6.80;99.90;;;;;;5030705;28;20100;-70
2024/01/23 01:12:19;;;;;;;18.42;3.00;;;6.80;99.90;;;;;;5019207;28;20115;-70
2024/01/23 01:14:47;;;;;;;16.77;3.10;;;6.70;99.90;;;;;;5020239;28;20065;-70
2024/01/23 01:17:14;;;;;;;18.65;2.92;;;6.70;99.90;;;;;;5018987;28;20099;-69
2024/01/23 01:19:41;;;;;;;13.25;2.70;;;6.70;99.90;;;;;;5023069;28;20049;-69
2024/01/23 01:22:08;;;;;;;18.73;3.17;;;6.70;99.90;;;;;;5033251;28;20125;-69
2024/01/23 01:24:35;;;;;;;20.92;4.30;;;6.70;99.90;;;;;;5024078;28;20122;-68
2024/01/23 01:27:02;;;;;;;12.75;2.42;;;6.70;99.90;;;;;;5022090;28;20135;-70
2024/01/23 01:29:29;;;;;;;18.25;3.60;;;6.70;99.90;;;;;;5018559;28;20182;-68
2024/01/23 01:31:56;;;;;;;16.05;3.53;;;6.60;99.90;;;;;;5022150;28;20125;-68
2024/01/23 01:34:23;;;;;;;17.95;3.10;;;6.60;99.90;;;;;;5023535;28;20045;-68
2024/01/23 01:36:50;;;;;;;32.20;4.60;;;6.60;99.90;;;;;;5025628;28;20057;-69
2024/01/23 01:39:17;;;;;;;21.48;3.45;;;6.70;99.90;;;;;;5021051;28;20077;-69
2024/01/23 01:41:50;;;;;;;20.42;3.00;;;6.70;99.90;;;;;;5022663;28;20076;-69
2024/01/23 01:44:17;;;;;;;17.90;3.17;;;6.70;99.90;;;;;;5023335;28;20061;-68
2024/01/23 01:46:44;;;;;;;27.75;4.35;;;6.60;99.90;;;;;;5024185;28;20081;-68
2024/01/23 01:49:11;;;;;;;19.75;3.42;;;6.60;99.90;;;;;;5021277;28;20046;-69
2024/01/23 01:51:38;;;;;;;21.23;4.35;;;6.60;99.90;;;;;;5024190;28;20526;-69
2024/01/23 01:54:05;;;;;;;22.13;4.43;;;6.60;99.90;;;;;;5016310;28;20081;-69
2024/01/23 01:56:32;;;;;;;27.13;3.85;;;6.60;99.90;;;;;;5019691;28;20063;-69
2024/01/23 01:58:58;;;;;;;31.15;6.15;;;6.60;99.90;;;;;;5000984;28;20713;-69
2024/01/23 02:01:25;;;;;;;24.83;4.07;;;6.60;99.90;;;;;;5019568;28;20046;-68
2024/01/23 02:03:53;;;;;;;17.65;2.78;;;6.60;99.90;;;;;;5019720;28;20053;-69
2024/01/23 02:06:20;;;;;;;20.15;2.92;;;6.60;99.90;;;;;;5023844;28;20565;-69
2024/01/23 02:08:48;;;;;;;25.90;3.92;;;6.50;99.90;;;;;;5019215;28;20516;-69
2024/01/23 02:11:15;;;;;;;25.80;4.10;;;6.50;99.90;;;;;;5021611;28;20283;-69
2024/01/23 02:13:42;;;;;;;18.00;4.63;;;6.40;99.90;;;;;;5020034;28;20389;-68
2024/01/23 02:16:09;;;;;;;16.85;2.90;;;6.40;99.90;;;;;;5012486;28;20181;-69
2024/01/23 02:18:36;;;;;;;17.23;2.10;;;6.40;99.90;;;;;;5017787;28;20576;-68
2024/01/23 02:21:03;;;;;;;17.63;2.78;;;6.40;99.90;;;;;;5020836;28;20405;-68
2024/01/23 02:23:30;;;;;;;17.10;4.20;;;6.40;99.90;;;;;;5019350;28;20468;-69
2024/01/23 02:25:57;;;;;;;23.90;3.47;;;6.40;99.90;;;;;;5017023;28;20049;-69
2024/01/23 02:28:24;;;;;;;17.42;2.58;;;6.40;99.90;;;;;;5019384;28;20042;-68
2024/01/23 02:30:51;;;;;;;24.75;3.85;;;6.30;99.90;;;;;;5018680;28;20080;-68
2024/01/23 02:33:17;;;;;;;22.67;3.42;;;6.30;99.90;;;;;;5021527;28;20543;-69
2024/01/23 02:35:45;;;;;;;20.15;3.38;;;6.30;99.90;;;;;;5013769;28;20049;-69
2024/01/23 02:38:11;;;;;;;23.27;4.18;;;6.30;99.90;;;;;;5025916;28;20115;-68
2024/01/23 02:40:38;;;;;;;30.42;4.05;;;6.30;99.90;;;;;;5017956;28;20064;-71
2024/01/23 02:43:05;;;;;;;23.58;2.80;;;6.20;99.90;;;;;;5017875;28;20119;-68
2024/01/23 02:45:32;;;;;;;32.22;3.95;;;6.20;99.90;;;;;;5013677;28;20123;-71
2024/01/23 02:47:59;;;;;;;18.80;3.08;;;6.20;99.90;;;;;;5017554;28;20107;-69
2024/01/23 02:50:28;;;;;;;23.23;5.35;;;6.20;99.90;;;;;;5024444;28;20059;-70
2024/01/23 02:52:55;;;;;;;37.10;5.47;;;6.20;99.90;;;;;;5023907;28;20084;-69
2024/01/23 02:55:22;;;;;;;19.20;3.30;;;6.20;99.90;;;;;;5018750;28;20459;-70
2024/01/23 02:57:48;;;;;;;26.10;3.38;;;6.20;99.90;;;;;;5020176;28;20149;-69
2024/01/23 03:00:16;;;;;;;36.70;6.57;;;6.30;99.90;;;;;;5023763;28;20115;-70
2024/01/23 03:02:43;;;;;;;29.05;3.08;;;6.20;99.90;;;;;;5015431;28;20079;-70
2024/01/23 03:05:10;;;;;;;19.20;3.72;;;6.30;99.90;;;;;;5021712;28;20045;-70
2024/01/23 03:07:37;;;;;;;20.05;2.83;;;6.30;99.90;;;;;;5021895;28;20171;-70
2024/01/23 03:10:04;;;;;;;22.20;4.15;;;6.30;99.90;;;;;;5023986;28;20118;-69
2024/01/23 03:12:31;;;;;;;13.15;3.58;;;6.30;99.90;;;;;;5021560;28;20440;-70
2024/01/23 03:14:58;;;;;;;19.92;3.90;;;6.30;99.90;;;;;;5019600;28;20284;-68
2024/01/23 03:17:25;;;;;;;23.85;4.03;;;6.20;99.90;;;;;;5016532;28;20454;-68
2024/01/23 03:19:52;;;;;;;22.02;3.55;;;6.30;99.90;;;;;;5022651;28;20064;-68
2024/01/23 03:22:19;;;;;;;19.38;4.05;;;6.30;99.90;;;;;;5020346;28;20045;-68
2024/01/23 03:24:46;;;;;;;25.00;3.92;;;6.30;99.90;;;;;;5023407;28;20052;-69
2024/01/23 03:27:12;;;;;;;23.67;3.33;;;6.30;99.90;;;;;;5016290;28;20105;-68
2024/01/23 03:29:41;;;;;;;28.90;4.05;;;6.30;99.90;;;;;;5024670;28;20049;-68
2024/01/23 03:32:08;;;;;;;20.27;4.47;;;6.30;99.90;;;;;;5018861;28;20095;-69
2024/01/23 03:34:35;;;;;;;21.10;3.53;;;6.30;99.90;;;;;;5022927;28;20400;-69
2024/01/23 03:37:02;;;;;;;19.75;3.47;;;6.30;99.90;;;;;;5016516;28;20075;-69
2024/01/23 03:39:29;;;;;;;19.70;2.90;;;6.30;99.90;;;;;;5020209;28;20069;-69
2024/01/23 03:41:56;;;;;;;27.08;4.22;;;6.30;99.90;;;;;;5017957;28;20048;-69
2024/01/23 03:44:24;;;;;;;19.15;5.45;;;6.30;99.90;;;;;;5019980;28;20046;-69
2024/01/23 03:46:52;;;;;;;38.85;5.57;;;6.30;99.90;;;;;;5016950;28;20129;-69
2024/01/23 03:49:19;;;;;;;28.13;3.67;;;6.30;99.90;;;;;;5021030;28;20042;-68
2024/01/23 03:51:46;;;;;;;30.98;3.55;;;6.20;99.90;;;;;;5018982;28;20512;-69
2024/01/23 03:54:14;;;;;;;17.40;4.38;;;6.20;99.90;;;;;;5022736;28;20115;-71
2024/01/23 03:56:41;;;;;;;18.35;2.70;;;6.20;99.90;;;;;;5021594;28;20053;-70
2024/01/23 03:59:08;;;;;;;18.52;2.65;;;6.30;99.90;;;;;;5013904;28;20050;-70
2024/01/23 04:01:35;;;;;;;18.10;2.70;;;6.30;99.90;;;;;;5022923;28;20076;-68
2024/01/23 04:04:02;;;;;;;16.65;4.60;;;6.20;99.90;;;;;;5018945;28;20046;-68
2024/01/23 04:06:29;;;;;;;16.25;4.07;;;6.20;99.90;;;;;;5020971;28;20148;-69
2024/01/23 04:08:57;;;;;;;27.23;5.03;;;6.20;99.90;;;;;;5015451;28;20041;-68
2024/01/23 04:11:24;;;;;;;34.88;5.53;;;6.20;99.90;;;;;;5023034;28;20042;-68
2024/01/23 04:13:50;;;;;;;33.28;6.80;;;6.20;99.90;;;;;;5013401;28;20504;-69
2024/01/23 04:16:17;;;;;;;24.35;3.55;;;6.20;99.90;;;;;;5013756;28;20266;-72
2024/01/23 04:18:44;;;;;;;23.70;3.40;;;6.20;99.90;;;;;;5016683;28;20103;-69
2024/01/23 04:21:15;;;;;;;31.13;5.05;;;6.20;99.90;;;;;;5023466;28;20064;-69
2024/01/23 04:23:42;;;;;;;23.27;3.03;;;6.20;99.90;;;;;;5013715;28;20414;-69
2024/01/23 04:26:08;;;;;;;22.48;4.43;;;6.20;99.90;;;;;;5018727;28;20107;-69
2024/01/23 04:28:36;;;;;;;30.20;5.22;;;6.20;99.90;;;;;;5020266;28;20037;-69
2024/01/23 04:31:03;;;;;;;20.30;4.65;;;6.30;99.90;;;;;;5016953;28;20097;-69
2024/01/23 04:33:29;;;;;;;17.65;4.35;;;6.20;99.90;;;;;;5019840;28;20049;-69
2024/01/23 04:35:56;;;;;;;32.42;3.95;;;6.30;99.90;;;;;;5026625;28;20060;-69
2024/01/23 04:38:23;;;;;;;19.65;3.35;;;6.30;99.90;;;;;;5024602;28;20049;-69
2024/01/23 04:40:50;;;;;;;25.70;4.38;;;6.30;99.90;;;;;;5021549;28;20061;-69
2024/01/23 04:43:17;;;;;;;29.73;3.65;;;6.30;99.90;;;;;;5022782;28;20049;-68
2024/01/23 04:45:45;;;;;;;25.58;4.50;;;6.30;99.90;;;;;;5017211;28;20041;-69
2024/01/23 04:48:12;;;;;;;19.42;4.68;;;6.30;99.90;;;;;;5023775;28;20095;-68
2024/01/23 04:50:39;;;;;;;27.40;4.40;;;6.30;99.90;;;;;;5021755;28;20080;-69
2024/01/23 04:53:06;;;;;;;33.80;4.63;;;6.40;99.90;;;;;;5020012;28;20130;-68
2024/01/23 04:55:33;;;;;;;30.65;4.80;;;6.40;99.90;;;;;;5019321;28;20069;-68
2024/01/23 04:58:00;;;;;;;22.27;4.63;;;6.30;99.90;;;;;;5021692;28;20057;-69
2024/01/23 05:00:27;;;;;;;31.48;8.48;;;6.20;99.90;;;;;;5019012;28;20041;-69
2024/01/23 05:02:54;;;;;;;27.33;5.20;;;6.20;99.90;;;;;;5024187;28;20555;-68
2024/01/23 05:05:21;;;;;;;20.80;3.83;;;6.20;99.90;;;;;;5019086;28;20041;-69
2024/01/23 05:07:48;;;;;;;26.58;3.17;;;6.10;99.90;;;;;;5010942;28;20145;-69
2024/01/23 05:10:15;;;;;;;18.38;5.32;;;6.10;99.90;;;;;;5020894;28;20169;-70
2024/01/23 05:12:41;;;;;;;22.02;3.40;;;6.10;99.90;;;;;;5024108;28;20053;-69
2024/01/23 05:15:09;;;;;;;25.55;4.90;;;6.10;99.90;;;;;;5020214;28;20063;-69
2024/01/23 05:17:36;;;;;;;17.05;3.38;;;6.10;99.90;;;;;;5024882;28;20053;-69
2024/01/23 05:20:06;;;;;;;28.58;4.03;;;6.10;99.90;;;;;;5019826;28;20457;-69
2024/01/23 05:22:33;;;;;;;20.45;5.22;;;6.10;99.90;;;;;;5016974;28;20053;-69
2024/01/23 05:25:00;;;;;;;24.77;3.70;;;6.10;99.90;;;;;;5020942;28;20126;-70
2024/01/23 05:27:26;;;;;;;26.75;3.03;;;6.10;99.90;;;;;;5019194;28;20107;-69
2024/01/23 05:29:53;;;;;;;22.15;3.60;;;6.10;99.90;;;;;;5017163;28;20050;-68
2024/01/23 05:32:20;;;;;;;24.50;3.85;;;6.10;99.90;;;;;;5021023;28;20099;-68
2024/01/23 05:34:47;;;;;;;31.90;3.85;;;6.10;99.90;;;;;;5020165;28;20112;-70
2024/01/23 05:37:14;;;;;;;19.70;3.42;;;6.10;99.90;;;;;;5024058;28;20049;-70
2024/01/23 05:39:41;;;;;;;29.13;3.08;;;6.20;99.90;;;;;;5024014;28;20119;-68
2024/01/23 05:42:08;;;;;;;15.73;3.22;;;6.20;99.90;;;;;;5018526;28;20038;-68
2024/01/23 05:44:35;;;;;;;20.35;2.97;;;6.20;99.90;;;;;;5017711;28;20045;-68
2024/01/23 05:47:02;;;;;;;23.23;5.00;;;6.20;99.90;;;;;;5016864;28;20563;-69
2024/01/23 05:49:29;;;;;;;18.23;3.33;;;6.20;99.90;;;;;;5027302;28;20045;-69
2024/01/23 05:51:55;;;;;;;14.70;2.75;;;6.30;99.90;;;;;;5016222;28;20057;-68
2024/01/23 05:54:22;;;;;;;17.73;3.33;;;6.30;99.90;;;;;;5025249;28;20057;-69
2024/01/23 05:56:49;;;;;;;18.35;4.47;;;6.30;99.90;;;;;;5023266;28;20049;-68
2024/01/23 05:59:16;;;;;;;23.17;3.28;;;6.30;99.90;;;;;;5041460;28;20049;-68
2024/01/23 06:01:43;;;;;;;15.80;3.15;;;6.40;99.90;;;;;;5016350;28;20134;-68
2024/01/23 06:04:09;;;;;;;16.77;3.45;;;6.40;99.90;;;;;;5023972;28;20084;-68
2024/01/23 06:06:41;;;;;;;26.38;5.30;;;6.40;99.90;;;;;;5021109;28;20053;-69
2024/01/23 06:09:09;;;;;;;25.45;3.58;;;6.40;99.90;;;;;;5022988;28;20052;-68
2024/01/23 06:11:38;;;;;;;24.70;3.42;;;6.50;99.90;;;;;;5024114;28;20045;-68
2024/01/23 06:14:06;;;;;;;22.33;3.10;;;6.40;99.90;;;;;;5022896;28;20045;-68
2024/01/23 06:16:33;;;;;;;22.85;6.07;;;6.50;99.90;;;;;;5024951;28;20088;-68
2024/01/23 06:19:00;;;;;;;18.33;3.42;;;6.50;99.90;;;;;;5007425;28;20116;-68
2024/01/23 06:21:27;;;;;;;19.88;3.53;;;6.50;99.90;;;;;;5012913;28;20042;-69
2024/01/23 06:23:54;;;;;;;16.15;3.58;;;6.60;99.90;;;;;;5010698;28;20062;-69
2024/01/23 06:26:21;;;;;;;26.80;3.63;;;6.60;99.90;;;;;;5020098;28;20145;-68
2024/01/23 06:28:48;;;;;;;27.67;7.10;;;6.70;99.90;;;;;;5019654;28;20102;-69
2024/01/23 06:31:15;;;;;;;26.38;5.00;;;6.70;99.90;;;;;;5021748;28;20050;-69
2024/01/23 06:33:41;;;;;;;19.77;4.07;;;6.80;99.90;;;;;;5015988;28;20077;-70
2024/01/23 06:36:09;;;;;;;23.88;4.22;;;6.80;99.90;;;;;;5016296;28;20075;-69
2024/01/23 06:38:35;;;;;;;16.00;3.60;;;6.80;99.90;;;;;;5015475;28;20472;-69
2024/01/23 06:41:02;;;;;;;26.40;4.93;;;6.90;99.90;;;;;;5018651;28;20049;-70
2024/01/23 06:43:29;;;;;;;20.15;4.15;;;6.90;99.90;;;;;;5024323;28;20114;-70
2024/01/23 06:45:57;;;;;;;26.08;3.35;;;6.90;99.90;;;;;;5024797;28;20124;-70
2024/01/23 06:48:24;;;;;;;25.15;4.60;;;6.90;99.90;;;;;;5018539;28;20077;-70
2024/01/23 06:50:51;;;;;;;26.65;3.95;;;6.90;99.90;;;;;;5025500;28;20303;-70
2024/01/23 06:53:17;;;;;;;28.15;5.20;;;7.00;99.90;;;;;;5016940;28;20613;-70
2024/01/23 06:55:45;;;;;;;33.90;4.65;;;7.00;99.90;;;;;;5022646;28;20144;-70
2024/01/23 06:58:11;;;;;;;16.83;3.78;;;7.00;99.90;;;;;;5017454;28;20053;-70
2024/01/23 07:00:38;;;;;;;35.38;5.78;;;7.00;99.90;;;;;;5021761;28;20037;-70
2024/01/23 07:03:08;;;;;;;23.55;3.97;;;7.00;99.90;;;;;;5018037;28;20061;-69
2024/01/23 07:05:35;;;;;;;23.63;4.10;;;7.00;99.90;;;;;;5019867;28;20362;-69
2024/01/23 07:08:05;;;;;;;26.13;4.40;;;7.10;99.90;;;;;;5022656;28;20745;-69
2024/01/23 07:10:32;;;;;;;28.33;5.13;;;7.10;99.90;;;;;;5020158;28;20512;-71
2024/01/23 07:12:59;;;;;;;24.13;4.80;;;7.10;99.90;;;;;;5022778;28;20083;-69
2024/01/23 07:15:26;;;;;;;26.67;3.47;;;7.10;99.90;;;;;;5020367;28;20045;-69
2024/01/23 07:17:53;;;;;;;28.60;4.43;;;7.10;99.90;;;;;;5017371;28;20076;-69
2024/01/23 07:20:20;;;;;;;23.67;6.53;;;7.20;99.90;;;;;;5020342;28;20049;-69
2024/01/23 07:22:47;;;;;;;18.40;3.63;;;7.30;99.90;;;;;;5021004;28;20091;-69
2024/01/23 07:25:14;;;;;;;23.73;5.05;;;7.20;99.90;;;;;;5018003;28;20136;-70
2024/01/23 07:27:40;;;;;;;31.55;5.47;;;7.20;99.90;;;;;;5023027;28;20084;-69
2024/01/23 07:30:08;;;;;;;24.00;4.22;;;7.30;99.90;;;;;;5017861;28;20096;-69
2024/01/23 07:32:35;;;;;;;18.13;3.95;;;7.30;99.90;;;;;;5022671;28;20053;-68
2024/01/23 07:35:02;;;;;;;31.13;5.18;;;7.30;99.90;;;;;;5018611;28;20268;-69
2024/01/23 07:37:29;;;;;;;32.67;5.22;;;7.20;99.90;;;;;;5035699;28;20122;-70
2024/01/23 07:39:58;;;;;;;29.05;4.75;;;7.20;99.90;;;;;;5016473;28;20080;-68
2024/01/23 07:42:24;;;;;;;19.15;3.33;;;7.30;99.90;;;;;;5017088;28;20464;-68
2024/01/23 07:44:51;;;;;;;28.13;4.82;;;7.20;99.90;;;;;;5016920;28;20124;-68
2024/01/23 07:47:18;;;;;;;27.58;4.18;;;7.20;99.90;;;;;;4669847;28;9999762;-69
2024/01/23 07:49:45;;;;;;;26.90;4.40;;;7.30;99.90;;;;;;5018031;28;20045;-68
2024/01/23 07:52:18;;;;;;;22.85;6.45;;;7.30;99.90;;;;;;5010780;28;20235;-68
2024/01/23 07:54:45;;;;;;;27.13;4.38;;;7.40;99.90;;;;;;5014131;28;20453;-69
2024/01/23 07:57:12;;;;;;;29.42;4.72;;;7.40;99.90;;;;;;5007597;28;20137;-69
2024/01/23 07:59:40;;;;;;;33.08;4.18;;;7.40;99.90;;;;;;5017533;28;20357;-69
2024/01/23 08:02:07;;;;;;;35.40;5.10;;;7.40;99.90;;;;;;5011277;28;20045;-69
2024/01/23 08:04:34;;;;;;;28.65;4.78;;;7.40;99.90;;;;;;4997882;28;20537;-68
2024/01/23 08:07:01;;;;;;;33.97;5.03;;;7.50;99.90;;;;;;5014478;28;20114;-68
2024/01/23 08:09:28;;;;;;;21.17;5.07;;;7.50;99.90;;;;;;5021569;28;20060;-69
2024/01/23 08:11:55;;;;;;;35.72;4.88;;;7.60;99.90;;;;;;5015219;28;20258;-68
2024/01/23 08:14:22;;;;;;;44.53;8.05;;;7.60;99.90;;;;;;5019513;28;20049;-69
2024/01/23 08:16:50;;;;;;;25.33;5.03;;;7.60;99.90;;;;;;5016328;28;20057;-69
2024/01/23 08:19:17;;;;;;;37.00;6.80;;;7.70;99.90;;;;;;5023669;28;20053;-69
2024/01/23 08:21:45;;;;;;;30.45;6.13;;;7.70;99.90;;;;;;5016830;28;20152;-69
2024/01/23 08:24:12;;;;;;;35.83;6.20;;;7.70;99.90;;;;;;5025457;28;20128;-69
2024/01/23 08:26:39;;;;;;;35.00;6.10;;;7.70;99.90;;;;;;5020781;28;20056;-69
2024/01/23 08:29:07;;;;;;;33.75;5.13;;;7.80;99.90;;;;;;5025997;28;20046;-69
2024/01/23 08:31:34;;;;;;;46.83;6.45;;;7.80;99.90;;;;;;5022407;28;20359;-69
2024/01/23 08:34:01;;;;;;;33.28;5.15;;;7.80;99.90;;;;;;5025697;28;20517;-69
2024/01/23 08:36:28;;;;;;;40.53;5.78;;;7.80;99.90;;;;;;5021783;28;20053;-69
2024/01/23 08:38:54;;;;;;;32.55;5.65;;;7.70;99.90;;;;;;5025139;28;20049;-68
2024/01/23 08:41:21;;;;;;;28.77;5.63;;;7.70;99.90;;;;;;5023826;28;20226;-70
2024/01/23 08:43:49;;;;;;;36.05;7.13;;;7.70;99.90;;;;;;5021634;28;20057;-70
2024/01/23 08:46:18;;;;;;;31.63;7.20;;;7.70;99.90;;;;;;5017332;28;20064;-71
2024/01/23 08:48:45;;;;;;;32.17;5.55;;;7.70;99.90;;;;;;5020686;28;20267;-70
2024/01/23 08:51:13;;;;;;;32.17;4.82;;;7.70;99.90;;;;;;5019003;28;20041;-70
2024/01/23 08:53:41;;;;;;;44.50;6.50;;;7.70;99.90;;;;;;5021322;28;20045;-71
2024/01/23 08:56:08;;;;;;;33.35;5.53;;;7.80;99.90;;;;;;5026509;28;20575;-70
2024/01/23 08:58:34;;;;;;;38.90;5.10;;;7.80;99.90;;;;;;5016293;28;20144;-72
2024/01/23 09:01:01;;;;;;;41.20;6.93;;;7.90;99.90;;;;;;5023561;28;20077;-71
2024/01/23 09:03:28;;;;;;;37.35;5.32;;;7.90;99.90;;;;;;5019859;28;20079;-70
2024/01/23 09:05:55;;;;;;;36.60;6.78;;;8.00;99.90;;;;;;5024328;28;20053;-70
2024/01/23 09:08:22;;;;;;;34.35;5.18;;;8.00;99.90;;;;;;5017306;28;20465;-70
2024/01/23 09:10:49;;;;;;;33.92;7.75;;;8.00;99.90;;;;;;5025474;28;20042;-69
2024/01/23 09:13:18;;;;;;;29.88;4.20;;;8.10;99.90;;;;;;5016980;28;20057;-69
2024/01/23 09:15:45;;;;;;;32.80;5.15;;;8.10;99.90;;;;;;5027316;28;20053;-69
2024/01/23 09:18:12;;;;;;;37.30;4.88;;;8.20;99.90;;;;;;5029731;28;20335;-70
2024/01/23 09:20:39;;;;;;;22.38;4.40;;;8.20;99.90;;;;;;5025978;28;20045;-70
2024/01/23 09:23:06;;;;;;;47.22;9.18;;;8.20;99.90;;;;;;5023688;28;20038;-70
2024/01/23 09:25:33;;;;;;;33.13;4.72;;;8.20;99.90;;;;;;5025347;28;20488;-70
2024/01/23 09:27:59;;;;;;;33.42;6.13;;;8.30;99.90;;;;;;5036017;28;20504;-70
2024/01/23 09:30:28;;;;;;;23.45;4.15;;;8.30;99.90;;;;;;5022970;28;20057;-71
2024/01/23 09:32:57;;;;;;;30.70;5.10;;;8.40;99.90;;;;;;5023400;28;20500;-70
2024/01/23 09:35:25;;;;;;;25.67;4.70;;;8.30;99.90;;;;;;5024961;28;20042;-71
2024/01/23 09:37:51;;;;;;;31.98;5.38;;;8.40;99.90;;;;;;5022707;28;20112;-71
2024/01/23 09:40:18;;;;;;;34.35;4.93;;;8.40;99.90;;;;;;5025002;28;20523;-70
2024/01/23 09:42:45;;;;;;;28.30;5.55;;;8.40;99.90;;;;;;5026516;28;20084;-70
2024/01/23 09:45:17;;;;;;;17.60;3.55;;;8.50;99.90;;;;;;5007165;28;20117;-69
2024/01/23 09:47:47;;;;;;;23.70;3.90;;;8.50;99.90;;;;;;5021052;28;20049;-69
2024/01/23 09:50:14;;;;;;;26.60;4.60;;;8.50;99.90;;;;;;5018933;28;20134;-70
2024/01/23 09:52:42;;;;;;;20.88;3.85;;;8.50;99.90;;;;;;5024404;28;20072;-72
2024/01/23 09:55:09;;;;;;;24.98;3.88;;;8.50;99.90;;;;;;5015488;28;20057;-70
2024/01/23 09:57:38;;;;;;;31.52;4.53;;;8.50;99.90;;;;;;5022279;28;20112;-70
2024/01/23 10:00:11;;;;;;;20.55;5.13;;;8.50;99.90;;;;;;5018414;28;20124;-70
2024/01/23 10:02:39;;;;;;;26.58;4.38;;;8.50;99.90;;;;;;5025248;28;20045;-70
2024/01/23 10:05:10;;;;;;;33.45;4.35;;;8.50;99.90;;;;;;5016041;28;20123;-71
2024/01/23 10:07:37;;;;;;;21.77;5.50;;;8.60;99.90;;;;;;5023124;28;20049;-71
2024/01/23 10:10:13;;;;;;;22.85;5.07;;;8.70;99.90;;;;;;5013573;28;20050;-71
2024/01/23 10:12:44;;;;;;;22.75;4.40;;;8.70;99.90;;;;;;5024384;28;20106;-70
2024/01/23 10:15:13;;;;;;;29.77;5.40;;;8.70;99.90;;;;;;5016969;28;20187;-70
2024/01/23 10:17:40;;;;;;;21.60;4.03;;;8.70;99.90;;;;;;5025378;28;20045;-70
2024/01/23 10:20:10;;;;;;;36.85;5.00;;;8.80;99.90;;;;;;5024064;28;20046;-70
2024/01/23 10:22:37;;;;;;;23.27;4.63;;;8.80;99.90;;;;;;5016868;28;20145;-70
2024/01/23 10:25:11;;;;;;;31.73;4.95;;;8.80;99.90;;;;;;5020923;28;20052;-70
2024/01/23 10:27:38;;;;;;;33.15;4.28;;;8.80;99.90;;;;;;5024682;28;20248;-70
2024/01/23 10:30:05;;;;;;;26.77;4.85;;;8.80;99.90;;;;;;5019155;28;20057;-69
2024/01/23 10:32:33;;;;;;;37.00;3.50;;;8.80;99.90;;;;;;5021645;28;20132;-68
2024/01/23 10:35:00;;;;;;;27.45;3.95;;;8.80;99.90;;;;;;5020924;28;20519;-69
2024/01/23 10:37:27;;;;;;;33.17;4.63;;;8.80;99.90;;;;;;5022200;28;20132;-69
2024/01/23 10:39:54;;;;;;;25.63;6.30;;;8.80;99.90;;;;;;5018485;28;20071;-70
2024/01/23 10:42:21;;;;;;;36.42;5.78;;;8.80;99.90;;;;;;5018429;28;20092;-69
2024/01/23 10:44:49;;;;;;;31.40;4.97;;;8.80;99.90;;;;;;5023831;28;20642;-69
2024/01/23 10:47:19;;;;;;;25.85;4.50;;;8.80;99.90;;;;;;5014699;28;20042;-69
2024/01/23 10:49:46;;;;;;;23.40;3.97;;;8.80;99.90;;;;;;5023967;28;20049;-69
2024/01/23 10:52:16;;;;;;;28.45;5.13;;;8.80;99.90;;;;;;5016840;28;20045;-69
2024/01/23 10:54:44;;;;;;;24.10;3.95;;;8.80;99.90;;;;;;5016179;28;20053;-69
2024/01/23 10:57:22;;;;;;;25.80;4.45;;;8.90;99.90;;;;;;5018752;28;20042;-70
2024/01/23 10:59:50;;;;;;;27.58;4.43;;;8.90;99.90;;;;;;5021374;28;20049;-69
2024/01/23 11:02:27;;;;;;;33.10;5.53;;;8.90;99.90;;;;;;5012570;28;20045;-69
2024/01/23 11:04:58;;;;;;;28.40;4.07;;;8.90;99.90;;;;;;5015330;28;20504;-69
2024/01/23 11:07:42;;;;;;;26.83;3.85;;;8.90;99.90;;;;;;5022019;28;20049;-69
2024/01/23 11:10:42;;;;;;;19.80;4.45;;;8.90;99.90;;;;;;5018678;28;20578;-69
2024/01/23 11:13:26;;;;;;;18.80;3.47;;;9.00;99.90;;;;;;5022128;28;20045;-69
2024/01/23 11:15:53;;;;;;;27.08;4.65;;;9.00;99.90;;;;;;5007295;28;20065;-68
2024/01/23 11:18:25;;;;;;;23.67;4.15;;;9.00;99.90;;;;;;5018685;28;20037;-69
2024/01/23 11:21:08;;;;;;;25.85;4.43;;;9.00;99.90;;;;;;5020599;28;20408;-69
2024/01/23 11:23:39;;;;;;;26.85;4.35;;;9.10;99.90;;;;;;5015030;28;20498;-71
2024/01/23 11:26:22;;;;;;;27.50;4.75;;;9.00;99.90;;;;;;5023515;28;20136;-69
2024/01/23 11:28:54;;;;;;;32.85;4.05;;;9.10;99.90;;;;;;5019396;28;20064;-69
2024/01/23 11:31:23;;;;;;;23.08;4.22;;;9.00;99.90;;;;;;5020143;28;20049;-69
2024/01/23 11:33:51;;;;;;;23.58;4.22;;;9.00;99.90;;;;;;5019856;28;20057;-69
2024/01/23 11:36:23;;;;;;;29.92;4.40;;;9.00;99.90;;;;;;5023314;28;20311;-69
2024/01/23 11:38:57;;;;;;;26.98;6.07;;;9.10;99.90;;;;;;5021223;28;20061;-69
2024/01/23 11:41:27;;;;;;;25.33;4.93;;;9.10;99.90;;;;;;5024527;28;20063;-69
2024/01/23 11:43:56;;;;;;;27.33;4.13;;;9.10;99.90;;;;;;5020801;28;20045;-69
2024/01/23 11:46:23;;;;;;;35.05;4.32;;;9.20;99.90;;;;;;5027705;28;20193;-69
2024/01/23 11:48:51;;;;;;;27.95;3.55;;;9.20;99.90;;;;;;5027424;28;20065;-69
2024/01/23 11:51:18;;;;;;;44.05;5.70;;;9.20;99.90;;;;;;5039794;28;20427;-69
2024/01/23 11:53:45;;;;;;;34.22;7.10;;;9.30;99.90;;;;;;5024682;28;20053;-70
2024/01/23 11:56:12;;;;;;;28.48;5.47;;;9.30;99.90;;;;;;5036906;28;20122;-69
2024/01/23 11:58:41;;;;;;;22.10;5.38;;;9.30;99.90;;;;;;5022393;28;20045;-69
2024/01/23 12:01:08;;;;;;;29.42;4.55;;;9.40;99.90;;;;;;5027833;28;20056;-69
2024/01/23 12:03:35;;;;;;;23.52;5.18;;;9.40;99.90;;;;;;5022974;28;20153;-68
2024/01/23 12:06:02;;;;;;;30.88;4.72;;;9.40;99.90;;;;;;5026475;28;20075;-69
2024/01/23 12:08:29;;;;;;;32.20;5.07;;;9.50;99.90;;;;;;5022674;28;20050;-69
2024/01/23 12:10:56;;;;;;;24.10;4.40;;;9.50;99.90;;;;;;5025528;28;20050;-69
2024/01/23 12:13:24;;;;;;;20.52;3.92;;;9.50;99.90;;;;;;5030192;28;20053;-69
2024/01/23 12:15:51;;;;;;;30.73;4.60;;;9.50;99.90;;;;;;5028560;28;20098;-69
2024/01/23 12:18:22;;;;;;;20.60;4.55;;;9.50;99.90;;;;;;5024483;28;20045;-68
2024/01/23 12:20:49;;;;;;;28.17;3.42;;;9.50;99.90;;;;;;5021752;28;20468;-69
2024/01/23 12:23:16;;;;;;;17.25;3.65;;;9.50;99.90;;;;;;5042380;28;20038;-69
2024/01/23 12:25:44;;;;;;;20.67;5.65;;;9.60;99.90;;;;;;5026001;28;20044;-68
2024/01/23 12:28:10;;;;;;;20.52;3.08;;;9.60;99.90;;;;;;5027620;28;20515;-69
2024/01/23 12:30:37;;;;;;;23.75;3.72;;;9.60;99.90;;;;;;5019892;28;20049;-69
2024/01/23 12:33:05;;;;;;;22.00;2.80;;;9.60;99.90;;;;;;5031303;28;20049;-69
2024/01/23 12:35:36;;;;;;;8.68;2.47;;;9.60;99.90;;;;;;5024224;28;20049;-68
2024/01/23 12:38:03;;;;;;;14.30;2.70;;;9.60;99.90;;;;;;5035875;28;20057;-68
2024/01/23 12:40:29;;;;;;;11.00;2.58;;;9.60;99.90;;;;;;5020210;28;20443;-68
2024/01/23 12:42:56;;;;;;;12.00;2.13;;;9.60;99.90;;;;;;5032372;28;20496;-69
2024/01/23 12:45:23;;;;;;;10.30;2.17;;;9.60;99.90;;;;;;5021216;28;20049;-69
2024/01/23 12:47:51;;;;;;;9.93;2.55;;;9.60;99.90;;;;;;5026784;28;20560;-69
2024/01/23 12:50:22;;;;;;;11.52;1.88;;;9.70;99.90;;;;;;5020394;28;20378;-68